Archival Weather

Chicago O'Hare International

Chicago, Illinois (KORD)

Report from: Wednesday, September 6, 2023 6:10 PM CDT
Current time: Wednesday, May 29, 2024 6:48 PM CDT

Current weather – Weather history – Daily summaries
Weather forecast

Temperature22.2°C (72.0°F)
Dew point18.3°C (64.9°F)
Winds 12 kts (6.2 m/s, 13.8 mph) West (260°)
Wind gusts 21 kts (10.8 m/s, 24.2 mph)
Visibility10 mi. (16.1 km)
Clouds Ceiling: Overcast 1,200 ft. (366 m)
Altimeter29.79 in.Hg (1009 mB)
Relative humidity79 %
Density altitude1,275 ft. (389 m)
Remarks Automated weather observing station with precipitation discriminator
Flight conditions Marginal Visual Meteorological Conditions
Raw dataKORD 062310Z 26012G21KT 10SM OVC012 22/18 A2979 RMK AO2 T02220183
An error has occurred. This application may no longer respond until reloaded. Reload 🗙